Time;durP1;ratioP1;P1;durP2;ratioP2;P2;SDS_P1;SDS_P2;PMS_P1;PMS_P2;Temp;Humidity;BMP_temperature;BMP_pressure;BME280_temperature;BME280_humidity;BME280_pressure;Samples;Min_cycle;Max_cycle;Signal;HPM_P1;HPM_P2
2023/09/30 00:00:28;;;;;;;2.93;2.30;;;15.10;99.90;;;;;;467159;253;29300;-71
2023/09/30 00:02:29;;;;;;;4.80;1.90;;;15.10;99.90;;;;;;467127;253;29362;-71
2023/09/30 00:04:30;;;;;;;3.40;2.30;;;15.20;99.90;;;;;;467116;254;28964;-71
2023/09/30 00:06:31;;;;;;;2.20;2.00;;;15.20;99.90;;;;;;467132;253;28924;-70
2023/09/30 00:08:33;;;;;;;3.80;2.30;;;15.20;99.90;;;;;;467142;253;28894;-72
2023/09/30 00:10:34;;;;;;;2.93;2.30;;;15.20;99.90;;;;;;467135;253;28833;-71
2023/09/30 00:12:35;;;;;;;2.87;2.20;;;15.10;99.90;;;;;;467146;254;28983;-71
2023/09/30 00:14:37;;;;;;;2.50;2.20;;;15.20;99.90;;;;;;467163;253;28896;-72
2023/09/30 00:16:38;;;;;;;2.97;2.10;;;15.30;99.90;;;;;;467136;253;29401;-71
2023/09/30 00:18:40;;;;;;;2.40;2.20;;;15.30;99.90;;;;;;467138;254;29450;-71
2023/09/30 00:20:40;;;;;;;4.03;2.60;;;15.30;99.90;;;;;;467144;253;29269;-71
2023/09/30 00:22:41;;;;;;;2.70;2.30;;;15.40;99.90;;;;;;467161;249;28974;-71
2023/09/30 00:24:43;;;;;;;3.73;2.53;;;15.40;99.90;;;;;;467166;253;28868;-72
2023/09/30 00:26:44;;;;;;;3.40;2.23;;;15.40;99.90;;;;;;467000;254;28930;-71
2023/09/30 00:28:45;;;;;;;2.67;2.30;;;15.40;99.90;;;;;;466999;253;28939;-71
2023/09/30 00:30:47;;;;;;;2.37;2.07;;;15.40;99.90;;;;;;467141;253;28836;-71
2023/09/30 00:32:48;;;;;;;2.33;2.23;;;15.50;99.90;;;;;;467131;254;29047;-71
2023/09/30 00:34:49;;;;;;;3.53;2.23;;;15.40;99.90;;;;;;467156;253;28987;-71
2023/09/30 00:36:50;;;;;;;4.63;2.80;;;15.40;99.90;;;;;;467147;254;29435;-71
2023/09/30 00:38:52;;;;;;;4.33;2.70;;;15.30;99.90;;;;;;467143;253;29340;-71
2023/09/30 00:40:53;;;;;;;2.93;2.57;;;15.20;99.90;;;;;;467179;253;29419;-72
2023/09/30 00:42:54;;;;;;;4.73;3.10;;;15.20;99.90;;;;;;467168;253;29291;-71
2023/09/30 00:44:55;;;;;;;2.73;2.53;;;15.20;99.90;;;;;;467147;253;29021;-72
2023/09/30 00:46:56;;;;;;;3.17;2.80;;;15.20;99.90;;;;;;467135;253;28955;-71
2023/09/30 00:48:58;;;;;;;3.10;2.50;;;15.30;99.90;;;;;;467151;253;28840;-71
2023/09/30 00:50:59;;;;;;;4.50;2.90;;;15.20;99.90;;;;;;467195;253;28911;-72
2023/09/30 00:53:00;;;;;;;3.50;2.60;;;15.20;99.90;;;;;;467153;253;28869;-71
2023/09/30 00:55:02;;;;;;;5.80;3.30;;;15.20;99.90;;;;;;467145;253;28888;-72
2023/09/30 00:57:03;;;;;;;2.73;2.40;;;15.10;99.90;;;;;;467101;254;28983;-71
2023/09/30 00:59:04;;;;;;;2.27;2.10;;;15.10;99.90;;;;;;467165;253;28916;-71
2023/09/30 01:01:05;;;;;;;3.50;2.40;;;15.10;99.90;;;;;;467147;253;29485;-72
2023/09/30 01:03:06;;;;;;;3.13;2.50;;;15.10;99.90;;;;;;467129;254;29377;-70
2023/09/30 01:05:08;;;;;;;2.50;2.30;;;15.10;99.90;;;;;;467131;253;29366;-71
2023/09/30 01:07:09;;;;;;;2.70;2.40;;;15.10;99.90;;;;;;467172;253;29426;-71
2023/09/30 01:09:12;;;;;;;4.90;2.60;;;15.00;99.90;;;;;;467174;253;28926;-71
2023/09/30 01:11:11;;;;;;;3.93;2.60;;;15.10;99.90;;;;;;467069;253;28932;-72
2023/09/30 01:13:13;;;;;;;3.63;2.20;;;15.10;99.90;;;;;;467156;249;28655;-72
2023/09/30 01:15:14;;;;;;;4.50;2.33;;;15.00;99.90;;;;;;467113;253;28885;-71
2023/09/30 01:17:15;;;;;;;2.20;2.00;;;15.10;99.90;;;;;;467149;253;29225;-72
2023/09/30 01:19:17;;;;;;;5.80;2.97;;;15.10;99.90;;;;;;467156;253;28842;-71
2023/09/30 01:21:18;;;;;;;2.30;2.10;;;15.00;99.90;;;;;;467153;253;29087;-71
2023/09/30 01:23:19;;;;;;;2.93;2.50;;;15.10;99.90;;;;;;467139;253;28604;-71
2023/09/30 01:25:21;;;;;;;2.50;2.30;;;15.10;99.90;;;;;;467145;253;28865;-71
2023/09/30 01:27:22;;;;;;;3.07;2.60;;;15.00;99.90;;;;;;467141;253;29339;-72
2023/09/30 01:29:25;;;;;;;3.30;2.67;;;14.90;99.90;;;;;;467188;253;29538;-71
2023/09/30 01:31:24;;;;;;;2.70;2.50;;;14.90;99.90;;;;;;467043;253;29492;-71
2023/09/30 01:33:25;;;;;;;2.87;2.27;;;14.90;99.90;;;;;;467139;253;29221;-72
2023/09/30 01:35:27;;;;;;;4.50;2.97;;;14.90;99.90;;;;;;467151;253;28823;-71
2023/09/30 01:37:28;;;;;;;3.40;2.47;;;14.90;99.90;;;;;;467153;250;29003;-72
2023/09/30 01:39:30;;;;;;;4.40;2.40;;;14.90;99.90;;;;;;467164;254;28520;-71
2023/09/30 01:41:30;;;;;;;2.60;2.23;;;14.90;99.90;;;;;;467142;253;28474;-71
2023/09/30 01:43:32;;;;;;;2.90;2.63;;;14.80;99.90;;;;;;467168;250;28834;-71
2023/09/30 01:45:33;;;;;;;2.47;2.17;;;14.70;99.90;;;;;;467156;254;28623;-72
2023/09/30 01:47:34;;;;;;;3.03;2.30;;;14.70;99.90;;;;;;467136;253;28550;-71
2023/09/30 01:49:35;;;;;;;2.60;2.40;;;14.70;99.90;;;;;;467148;250;28880;-70
2023/09/30 01:51:37;;;;;;;4.73;3.03;;;14.70;99.90;;;;;;467164;253;29368;-71
2023/09/30 01:53:38;;;;;;;3.40;2.40;;;14.70;99.90;;;;;;467132;253;29423;-73
2023/09/30 01:55:39;;;;;;;3.20;2.53;;;14.70;99.90;;;;;;467121;254;29385;-71
2023/09/30 01:57:40;;;;;;;5.00;2.60;;;14.70;99.90;;;;;;467064;249;28650;-71
2023/09/30 01:59:42;;;;;;;4.03;2.17;;;14.80;99.90;;;;;;467137;253;28828;-71
2023/09/30 02:01:43;;;;;;;2.57;2.37;;;14.80;99.90;;;;;;467139;254;28948;-71
2023/09/30 02:03:44;;;;;;;4.33;2.70;;;14.70;99.90;;;;;;467155;254;28473;-72
2023/09/30 02:05:45;;;;;;;2.53;2.23;;;14.70;99.90;;;;;;467143;249;28841;-71
2023/09/30 02:07:47;;;;;;;3.83;2.40;;;14.70;99.90;;;;;;467131;253;28963;-71
2023/09/30 02:09:48;;;;;;;2.40;2.13;;;14.70;99.90;;;;;;467137;253;28856;-71
2023/09/30 02:11:49;;;;;;;2.50;2.30;;;14.70;99.90;;;;;;467168;254;28597;-70
2023/09/30 02:13:50;;;;;;;3.13;2.83;;;14.70;99.90;;;;;;467180;253;28863;-71
2023/09/30 02:15:52;;;;;;;2.80;2.57;;;14.60;99.90;;;;;;467158;253;28874;-71
2023/09/30 02:17:53;;;;;;;2.83;2.27;;;14.60;99.90;;;;;;467133;253;29143;-71
2023/09/30 02:19:54;;;;;;;4.23;3.10;;;14.60;99.90;;;;;;467180;253;29071;-72
2023/09/30 02:21:55;;;;;;;3.07;2.77;;;14.60;99.90;;;;;;467157;253;28957;-72
2023/09/30 02:23:57;;;;;;;2.73;2.37;;;14.50;99.90;;;;;;467189;253;28550;-71
2023/09/30 02:25:58;;;;;;;3.00;2.50;;;14.50;99.90;;;;;;467148;253;28832;-71
2023/09/30 02:28:00;;;;;;;3.30;3.00;;;14.50;99.90;;;;;;467164;253;28599;-71
2023/09/30 02:30:00;;;;;;;2.33;2.23;;;14.40;99.90;;;;;;467151;253;28559;-73
2023/09/30 02:32:02;;;;;;;3.53;2.73;;;14.30;99.90;;;;;;467171;254;28838;-71
2023/09/30 02:34:03;;;;;;;2.70;2.50;;;14.40;99.90;;;;;;467172;254;28446;-71
2023/09/30 02:36:05;;;;;;;2.60;2.33;;;14.40;99.90;;;;;;467161;253;28487;-70
2023/09/30 02:38:06;;;;;;;3.67;3.07;;;14.30;99.90;;;;;;467116;253;28274;-71
2023/09/30 02:40:10;;;;;;;5.67;2.63;;;14.30;99.90;;;;;;467109;254;28548;-73
2023/09/30 02:42:08;;;;;;;6.20;3.50;;;14.20;99.90;;;;;;466780;254;29140;-71
2023/09/30 02:44:09;;;;;;;2.93;2.57;;;14.20;99.90;;;;;;467124;254;29349;-70
2023/09/30 02:46:12;;;;;;;6.70;2.87;;;14.20;99.90;;;;;;467149;254;29351;-71
2023/09/30 02:48:12;;;;;;;2.90;2.70;;;14.20;99.90;;;;;;467104;254;28479;-71
2023/09/30 02:50:13;;;;;;;2.87;2.60;;;14.10;99.90;;;;;;467164;253;28352;-71
2023/09/30 02:52:14;;;;;;;3.00;2.57;;;14.10;99.90;;;;;;467124;253;28152;-70
2023/09/30 02:54:15;;;;;;;2.53;2.33;;;14.10;99.90;;;;;;467127;249;28453;-71
2023/09/30 02:56:17;;;;;;;3.57;2.80;;;14.10;99.90;;;;;;467082;254;28473;-72
2023/09/30 02:58:18;;;;;;;3.73;2.60;;;14.10;99.90;;;;;;467136;254;28303;-73
2023/09/30 03:00:32;;;;;;;3.50;2.60;;;14.10;99.90;;;;;;467135;253;28535;-71
2023/09/30 03:02:26;;;;;;;3.00;2.50;;;14.10;99.90;;;;;;466534;254;28746;-71
2023/09/30 03:04:28;;;;;;;2.50;2.30;;;14.00;99.90;;;;;;467150;254;28281;-70
2023/09/30 03:06:29;;;;;;;2.87;2.67;;;14.00;99.90;;;;;;467152;253;28321;-73
2023/09/30 03:08:30;;;;;;;2.47;2.27;;;14.00;99.90;;;;;;467141;253;28269;-71
2023/09/30 03:10:31;;;;;;;2.90;2.70;;;14.00;99.90;;;;;;467151;253;28452;-71
2023/09/30 03:12:33;;;;;;;3.17;2.40;;;14.00;99.90;;;;;;467139;253;28450;-70
2023/09/30 03:14:34;;;;;;;2.77;2.57;;;13.90;99.90;;;;;;467122;249;28291;-71
2023/09/30 03:16:38;;;;;;;2.77;2.53;;;13.90;99.90;;;;;;467156;253;28325;-71
2023/09/30 03:18:36;;;;;;;3.70;2.47;;;13.80;99.90;;;;;;466996;254;28247;-70
2023/09/30 03:20:40;;;;;;;3.60;2.27;;;13.80;99.90;;;;;;467083;253;28447;-71
2023/09/30 03:22:40;;;;;;;2.50;2.30;;;13.80;99.90;;;;;;466864;254;29147;-72
2023/09/30 03:24:41;;;;;;;4.77;3.07;;;13.80;99.90;;;;;;467049;254;28975;-71
2023/09/30 03:26:41;;;;;;;2.70;2.50;;;13.70;99.90;;;;;;467104;254;28789;-70
2023/09/30 03:28:43;;;;;;;3.13;2.50;;;13.70;99.90;;;;;;467092;253;29032;-70
2023/09/30 03:30:45;;;;;;;3.80;2.80;;;13.70;99.90;;;;;;467083;254;28405;-70
2023/09/30 03:32:45;;;;;;;3.23;2.83;;;13.60;99.90;;;;;;467108;254;28300;-74
2023/09/30 03:34:46;;;;;;;4.57;3.03;;;13.60;99.90;;;;;;467100;253;28165;-71
2023/09/30 03:36:48;;;;;;;5.13;2.77;;;13.50;99.90;;;;;;467095;253;28272;-71
2023/09/30 03:38:49;;;;;;;3.40;2.67;;;13.40;99.90;;;;;;467100;254;28262;-71
2023/09/30 03:40:50;;;;;;;3.97;2.80;;;13.50;99.90;;;;;;467124;253;28276;-70
2023/09/30 03:42:51;;;;;;;2.90;2.60;;;13.50;99.90;;;;;;467152;253;28220;-71
2023/09/30 03:44:53;;;;;;;3.10;2.77;;;13.50;99.90;;;;;;467102;254;28220;-71
2023/09/30 03:46:54;;;;;;;4.93;2.90;;;13.50;99.90;;;;;;467088;253;28313;-71
2023/09/30 03:48:55;;;;;;;3.13;2.50;;;13.40;99.90;;;;;;467128;253;29668;-71
2023/09/30 03:50:56;;;;;;;3.70;2.83;;;13.40;99.90;;;;;;467173;253;28627;-71
2023/09/30 03:52:58;;;;;;;3.50;3.13;;;13.40;99.90;;;;;;467147;253;28738;-71
2023/09/30 03:54:59;;;;;;;5.10;2.77;;;13.40;99.90;;;;;;467152;253;28176;-70
2023/09/30 03:57:03;;;;;;;3.40;3.10;;;;;;;;;;467152;253;28309;-70
2023/09/30 03:59:03;;;;;;;3.03;2.73;;;13.30;99.90;;;;;;467189;250;26583;-71
2023/09/30 04:01:04;;;;;;;2.90;2.60;;;13.30;99.90;;;;;;467116;249;28756;-71
2023/09/30 04:03:05;;;;;;;6.10;3.70;;;13.30;99.90;;;;;;467143;253;28758;-71
2023/09/30 04:05:07;;;;;;;2.83;2.63;;;13.40;99.90;;;;;;467121;253;28787;-70
2023/09/30 04:07:09;;;;;;;5.07;3.07;;;13.30;99.90;;;;;;467144;253;28950;-72
2023/09/30 04:09:12;;;;;;;2.83;2.30;;;13.40;99.90;;;;;;467065;253;28311;-70
2023/09/30 04:11:17;;;;;;;2.87;2.67;;;13.50;99.90;;;;;;467147;254;28384;-71
2023/09/30 04:13:14;;;;;;;3.30;2.53;;;13.40;99.90;;;;;;466860;254;28304;-72
2023/09/30 04:15:15;;;;;;;2.53;2.33;;;13.40;99.90;;;;;;467132;253;28905;-70
2023/09/30 04:17:18;;;;;;;3.53;2.90;;;;;;;;;;467143;254;28294;-70
2023/09/30 04:19:19;;;;;;;4.00;3.17;;;13.40;99.90;;;;;;467170;254;26412;-71
2023/09/30 04:21:20;;;;;;;2.87;2.67;;;13.50;99.90;;;;;;467148;253;28400;-71
2023/09/30 04:23:22;;;;;;;4.40;3.00;;;13.50;99.90;;;;;;467157;253;28345;-71
2023/09/30 04:25:24;;;;;;;3.80;2.50;;;13.60;99.90;;;;;;467139;253;28208;-71
2023/09/30 04:27:26;;;;;;;4.40;2.80;;;;;;;;;;467043;254;28414;-71
2023/09/30 04:29:29;;;;;;;6.47;2.60;;;;;;;;;;467127;251;26622;-71
2023/09/30 04:31:29;;;;;;;3.10;2.23;;;13.50;99.90;;;;;;467178;250;26564;-71
2023/09/30 04:33:30;;;;;;;3.43;2.80;;;13.50;99.90;;;;;;467148;253;29032;-71
2023/09/30 04:35:31;;;;;;;2.77;2.50;;;13.50;99.90;;;;;;467122;253;28859;-70
2023/09/30 04:37:33;;;;;;;4.03;3.00;;;13.50;99.90;;;;;;467114;253;29204;-71
2023/09/30 04:39:35;;;;;;;3.60;3.07;;;;;;;;;;467123;254;28813;-71
2023/09/30 04:41:36;;;;;;;2.83;2.63;;;13.40;99.90;;;;;;467133;253;26587;-71
2023/09/30 04:43:40;;;;;;;3.47;2.73;;;13.40;99.90;;;;;;467159;253;28345;-70
2023/09/30 04:45:42;;;;;;;2.70;2.50;;;13.30;99.90;;;;;;467126;253;28620;-71
2023/09/30 04:47:44;;;;;;;3.67;3.30;;;13.30;99.90;;;;;;467066;253;28827;-71
2023/09/30 04:49:44;;;;;;;3.40;3.13;;;13.30;99.90;;;;;;467031;249;28357;-72
2023/09/30 04:51:45;;;;;;;3.37;2.90;;;13.30;99.90;;;;;;467161;250;28261;-71
2023/09/30 04:53:47;;;;;;;3.57;3.27;;;13.40;99.90;;;;;;467148;253;28341;-71
2023/09/30 04:55:50;;;;;;;2.87;2.67;;;13.50;99.90;;;;;;467105;253;28411;-71
2023/09/30 04:57:49;;;;;;;4.30;3.10;;;13.50;99.90;;;;;;467007;254;28269;-71
2023/09/30 04:59:50;;;;;;;3.57;2.83;;;13.50;99.90;;;;;;467158;249;28323;-71
2023/09/30 05:01:52;;;;;;;3.60;2.87;;;13.50;99.90;;;;;;467151;253;28212;-71
2023/09/30 05:03:53;;;;;;;3.67;3.37;;;13.50;99.90;;;;;;467160;253;29070;-71
2023/09/30 05:05:58;;;;;;;6.87;3.27;;;13.40;99.90;;;;;;467160;253;28798;-70
2023/09/30 05:07:57;;;;;;;2.60;2.40;;;13.40;99.90;;;;;;466870;254;28744;-70
2023/09/30 05:09:57;;;;;;;3.23;2.97;;;13.50;99.90;;;;;;467082;254;28300;-72
2023/09/30 05:11:58;;;;;;;3.17;2.80;;;13.50;99.90;;;;;;467154;253;28280;-71
2023/09/30 05:13:59;;;;;;;6.90;3.50;;;13.50;99.90;;;;;;467121;254;28204;-71
2023/09/30 05:16:00;;;;;;;3.83;3.10;;;13.50;99.90;;;;;;467172;253;28375;-71
2023/09/30 05:18:04;;;;;;;2.83;2.63;;;;;;;;;;467151;254;28282;-70
2023/09/30 05:20:06;;;;;;;3.20;2.90;;;13.40;99.90;;;;;;467198;250;28130;-71
2023/09/30 05:22:05;;;;;;;3.47;3.17;;;13.40;99.90;;;;;;467042;253;28319;-71
2023/09/30 05:24:07;;;;;;;3.27;2.67;;;13.40;99.90;;;;;;467159;253;28310;-71
2023/09/30 05:26:08;;;;;;;2.67;2.47;;;13.40;99.90;;;;;;467141;253;28264;-70
2023/09/30 05:28:10;;;;;;;2.93;2.73;;;13.40;99.90;;;;;;467140;249;28216;-71
2023/09/30 05:30:15;;;;;;;3.00;2.60;;;13.40;99.90;;;;;;467166;253;28196;-71
2023/09/30 05:32:13;;;;;;;4.53;2.80;;;13.40;99.90;;;;;;466758;254;28306;-71
2023/09/30 05:34:13;;;;;;;5.27;2.50;;;13.40;99.90;;;;;;467114;254;28216;-72
2023/09/30 05:36:14;;;;;;;3.40;3.10;;;13.30;99.90;;;;;;467174;253;28414;-70
2023/09/30 05:38:15;;;;;;;4.90;3.17;;;13.30;99.90;;;;;;467133;254;28246;-72
2023/09/30 05:40:21;;;;;;;3.90;2.70;;;13.20;99.90;;;;;;467146;253;28746;-71
2023/09/30 05:42:18;;;;;;;2.50;2.30;;;13.20;99.90;;;;;;466890;254;28729;-71
2023/09/30 05:44:20;;;;;;;2.60;2.40;;;13.30;99.90;;;;;;467173;253;28780;-71
2023/09/30 05:46:21;;;;;;;3.00;2.70;;;13.30;99.90;;;;;;467158;254;28296;-70
2023/09/30 05:48:22;;;;;;;3.03;2.53;;;13.30;99.90;;;;;;467122;253;28425;-70
2023/09/30 05:50:27;;;;;;;8.00;2.70;;;13.30;99.90;;;;;;467143;254;28317;-71
2023/09/30 05:52:25;;;;;;;5.00;3.17;;;;;;;;;;466782;254;28304;-73
2023/09/30 05:54:27;;;;;;;4.60;3.00;;;13.30;99.90;;;;;;467149;253;27049;-71
2023/09/30 05:56:28;;;;;;;4.17;3.30;;;13.40;99.90;;;;;;467123;253;28946;-71
2023/09/30 05:58:29;;;;;;;4.27;3.50;;;13.50;99.90;;;;;;467149;250;28879;-72
2023/09/30 06:00:30;;;;;;;2.97;2.67;;;13.50;99.90;;;;;;467162;254;28514;-70
2023/09/30 06:02:32;;;;;;;3.73;3.20;;;13.50;99.90;;;;;;467123;253;28204;-71
2023/09/30 06:04:33;;;;;;;3.13;2.80;;;13.40;99.90;;;;;;467141;253;28156;-71
2023/09/30 06:06:34;;;;;;;3.03;2.53;;;13.30;99.90;;;;;;467143;249;28210;-70
2023/09/30 06:08:37;;;;;;;3.77;3.23;;;13.30;99.90;;;;;;467146;253;28534;-72
2023/09/30 06:10:42;;;;;;;2.93;2.60;;;13.40;99.90;;;;;;467101;254;28418;-71
2023/09/30 06:12:38;;;;;;;4.20;3.07;;;13.40;99.90;;;;;;466706;254;28432;-70
2023/09/30 06:14:40;;;;;;;3.03;2.83;;;13.50;99.90;;;;;;467103;253;28225;-71
2023/09/30 06:16:40;;;;;;;3.00;2.70;;;13.50;99.90;;;;;;466993;254;28178;-71
2023/09/30 06:18:42;;;;;;;3.40;2.80;;;13.50;99.90;;;;;;467144;253;28320;-71
2023/09/30 06:20:43;;;;;;;4.73;3.13;;;13.50;99.90;;;;;;467153;254;28737;-70
2023/09/30 06:22:49;;;;;;;3.20;2.90;;;13.50;99.90;;;;;;467154;253;29052;-71
2023/09/30 06:24:49;;;;;;;2.90;2.70;;;13.50;99.90;;;;;;467086;254;28166;-71
2023/09/30 06:26:51;;;;;;;3.07;2.77;;;13.50;99.90;;;;;;467149;253;28354;-71
2023/09/30 06:28:54;;;;;;;3.70;3.17;;;;;;;;;;467098;254;28267;-71
2023/09/30 06:30:54;;;;;;;2.80;2.60;;;13.40;99.90;;;;;;467264;250;26599;-74
2023/09/30 06:32:55;;;;;;;3.30;3.00;;;13.40;99.90;;;;;;467141;253;28220;-71
2023/09/30 06:34:56;;;;;;;3.27;2.60;;;13.30;99.90;;;;;;467129;254;28405;-70
2023/09/30 06:36:57;;;;;;;3.10;2.80;;;13.30;99.90;;;;;;467139;253;28271;-71
2023/09/30 06:38:59;;;;;;;5.10;2.80;;;13.30;99.90;;;;;;467109;253;28373;-70
2023/09/30 06:41:01;;;;;;;3.50;3.20;;;13.30;99.90;;;;;;467117;253;28526;-71
2023/09/30 06:43:01;;;;;;;3.10;2.90;;;13.30;99.90;;;;;;467075;253;28378;-71
2023/09/30 06:45:05;;;;;;;3.17;2.87;;;13.40;99.90;;;;;;467149;249;28273;-71
2023/09/30 06:47:04;;;;;;;2.70;2.53;;;13.50;99.90;;;;;;466867;254;29942;-71
2023/09/30 06:49:05;;;;;;;4.00;3.37;;;13.60;99.90;;;;;;467154;253;28919;-71
2023/09/30 06:51:06;;;;;;;3.50;3.07;;;13.70;99.90;;;;;;467148;253;29554;-71
2023/09/30 06:53:09;;;;;;;8.40;3.30;;;13.80;99.90;;;;;;467164;254;28474;-71
2023/09/30 06:55:09;;;;;;;3.83;3.53;;;13.90;99.90;;;;;;467060;254;28453;-71
2023/09/30 06:57:10;;;;;;;2.90;2.70;;;13.80;99.90;;;;;;467150;253;28232;-71
2023/09/30 06:59:11;;;;;;;4.17;3.33;;;13.80;99.90;;;;;;467150;253;28390;-71
2023/09/30 07:01:12;;;;;;;3.53;3.13;;;13.90;99.90;;;;;;467144;253;28201;-70
2023/09/30 07:03:15;;;;;;;4.07;3.50;;;13.90;99.90;;;;;;467180;253;28618;-71
2023/09/30 07:05:15;;;;;;;4.23;3.30;;;13.80;99.90;;;;;;467102;253;28386;-71
2023/09/30 07:07:16;;;;;;;6.63;3.37;;;13.80;99.90;;;;;;467192;253;28344;-75
2023/09/30 07:09:19;;;;;;;5.60;3.87;;;13.90;99.90;;;;;;467131;253;28733;-71
2023/09/30 07:11:19;;;;;;;4.37;3.70;;;13.80;99.90;;;;;;467065;254;28898;-71
2023/09/30 07:13:20;;;;;;;6.03;4.60;;;13.80;99.90;;;;;;467119;254;28898;-70
2023/09/30 07:15:21;;;;;;;5.57;4.03;;;13.90;99.90;;;;;;467174;253;28307;-71
2023/09/30 07:17:22;;;;;;;4.17;3.67;;;13.90;99.90;;;;;;467169;253;28614;-72
2023/09/30 07:19:24;;;;;;;6.60;3.70;;;14.00;99.90;;;;;;467162;253;28265;-71
2023/09/30 07:21:25;;;;;;;4.60;3.50;;;14.00;99.90;;;;;;467155;253;28446;-71
2023/09/30 07:23:26;;;;;;;4.77;3.97;;;14.10;99.90;;;;;;467168;253;28557;-71
2023/09/30 07:25:27;;;;;;;7.27;4.83;;;14.10;99.90;;;;;;467178;253;28295;-71
2023/09/30 07:27:29;;;;;;;5.43;4.30;;;14.10;99.90;;;;;;467173;253;28417;-71
2023/09/30 07:29:30;;;;;;;5.53;4.40;;;14.20;99.90;;;;;;467202;253;28190;-71
2023/09/30 07:31:31;;;;;;;6.53;4.50;;;14.20;99.90;;;;;;467145;253;28571;-70
2023/09/30 07:33:32;;;;;;;9.30;4.23;;;14.30;99.90;;;;;;467152;254;29038;-72
2023/09/30 07:35:34;;;;;;;7.50;6.37;;;14.30;99.90;;;;;;467180;254;28872;-70
2023/09/30 07:37:35;;;;;;;9.10;5.50;;;14.30;99.90;;;;;;467140;253;29046;-72
2023/09/30 07:39:37;;;;;;;7.40;5.07;;;14.40;99.90;;;;;;466915;253;28884;-71
2023/09/30 07:41:37;;;;;;;8.97;5.00;;;14.40;99.90;;;;;;467114;253;28619;-71
2023/09/30 07:43:39;;;;;;;6.67;4.40;;;14.50;99.90;;;;;;467118;253;28534;-73
2023/09/30 07:45:40;;;;;;;4.57;3.97;;;14.60;99.90;;;;;;467133;253;28601;-71
2023/09/30 07:47:41;;;;;;;5.43;3.30;;;14.70;99.90;;;;;;467117;253;28581;-71
2023/09/30 07:49:42;;;;;;;7.23;4.30;;;14.60;99.90;;;;;;467138;253;28521;-71
2023/09/30 07:51:44;;;;;;;7.90;4.03;;;14.70;99.90;;;;;;467157;253;28264;-71
2023/09/30 07:53:45;;;;;;;5.00;4.00;;;14.70;99.90;;;;;;467156;253;28553;-70
2023/09/30 07:55:46;;;;;;;10.33;4.30;;;14.80;99.90;;;;;;467133;253;28917;-71
2023/09/30 07:57:47;;;;;;;4.53;3.43;;;14.80;99.90;;;;;;467132;253;29365;-71
2023/09/30 07:59:49;;;;;;;5.17;3.90;;;14.80;99.90;;;;;;467136;254;29419;-71
2023/09/30 08:01:50;;;;;;;5.00;3.40;;;14.80;99.90;;;;;;467144;253;29306;-71
2023/09/30 08:03:51;;;;;;;6.13;3.33;;;14.80;99.90;;;;;;467139;253;28433;-71
2023/09/30 08:05:52;;;;;;;5.57;3.60;;;14.90;99.90;;;;;;467134;249;28908;-71
2023/09/30 08:07:54;;;;;;;6.70;4.00;;;14.90;99.90;;;;;;467090;253;28638;-71
2023/09/30 08:09:55;;;;;;;7.17;3.73;;;14.90;99.90;;;;;;467134;253;28591;-73
2023/09/30 08:11:56;;;;;;;5.53;3.60;;;15.00;99.90;;;;;;467153;253;28429;-71
2023/09/30 08:13:58;;;;;;;5.27;3.00;;;15.00;99.90;;;;;;467130;254;28888;-71
2023/09/30 08:15:59;;;;;;;6.43;3.60;;;15.10;99.90;;;;;;467097;254;28831;-71
2023/09/30 08:18:02;;;;;;;4.77;3.20;;;15.10;99.90;;;;;;467123;254;29007;-71
2023/09/30 08:20:01;;;;;;;5.30;3.43;;;15.10;99.90;;;;;;467056;254;29436;-73
2023/09/30 08:22:03;;;;;;;7.20;3.60;;;15.20;99.90;;;;;;467112;253;28963;-71
2023/09/30 08:24:04;;;;;;;5.40;3.80;;;15.20;99.90;;;;;;467122;253;28861;-71
2023/09/30 08:26:05;;;;;;;4.27;3.03;;;15.30;99.90;;;;;;467122;253;28873;-71
2023/09/30 08:28:06;;;;;;;3.43;3.13;;;15.30;99.90;;;;;;467123;253;28626;-71
2023/09/30 08:30:07;;;;;;;5.10;3.80;;;15.40;99.90;;;;;;467146;253;28552;-71
2023/09/30 08:32:09;;;;;;;8.40;3.30;;;15.50;99.90;;;;;;467100;253;28852;-71
2023/09/30 08:34:10;;;;;;;4.77;3.13;;;15.50;99.90;;;;;;467137;253;28966;-71
2023/09/30 08:36:14;;;;;;;4.73;3.83;;;15.60;99.90;;;;;;467181;253;28943;-72
2023/09/30 08:38:12;;;;;;;6.30;2.90;;;15.60;99.90;;;;;;466841;254;29486;-71
2023/09/30 08:40:14;;;;;;;3.63;2.90;;;15.70;99.90;;;;;;467168;253;29518;-71
2023/09/30 08:42:15;;;;;;;4.23;3.33;;;15.80;99.90;;;;;;467159;253;29355;-71
2023/09/30 08:44:16;;;;;;;4.40;2.90;;;15.90;99.90;;;;;;467150;253;28861;-71
2023/09/30 08:46:17;;;;;;;4.33;3.00;;;16.10;99.90;;;;;;467168;253;29113;-72
2023/09/30 08:48:19;;;;;;;5.30;3.23;;;16.20;99.90;;;;;;467162;253;28937;-71
2023/09/30 08:50:20;;;;;;;4.93;3.33;;;16.30;99.90;;;;;;467136;253;28860;-71
2023/09/30 08:52:21;;;;;;;5.20;3.07;;;16.40;99.90;;;;;;467139;253;28931;-71
2023/09/30 08:54:23;;;;;;;5.20;3.47;;;16.40;99.90;;;;;;467166;253;28876;-73
2023/09/30 08:56:24;;;;;;;6.10;3.27;;;16.60;99.90;;;;;;467173;250;28964;-72
2023/09/30 08:58:25;;;;;;;8.27;3.90;;;16.60;99.90;;;;;;467140;253;29080;-71
2023/09/30 09:00:26;;;;;;;5.20;2.97;;;16.70;99.90;;;;;;467141;253;29005;-72
2023/09/30 09:02:28;;;;;;;4.93;2.80;;;16.80;99.90;;;;;;467058;254;30094;-70
2023/09/30 09:04:29;;;;;;;5.83;3.20;;;16.90;99.90;;;;;;467143;249;29332;-73
2023/09/30 09:06:30;;;;;;;6.97;3.13;;;16.90;99.90;;;;;;467147;253;29363;-73
2023/09/30 09:08:32;;;;;;;4.67;3.03;;;16.90;99.90;;;;;;467150;253;29421;-73
2023/09/30 09:10:33;;;;;;;4.17;2.67;;;17.00;99.90;;;;;;467135;253;28944;-71
2023/09/30 09:12:34;;;;;;;6.17;3.10;;;17.20;99.90;;;;;;467168;253;28877;-74
2023/09/30 09:14:35;;;;;;;5.23;3.03;;;17.30;99.90;;;;;;467158;253;28876;-73
2023/09/30 09:16:36;;;;;;;5.10;3.50;;;17.30;99.90;;;;;;467154;253;28949;-73
2023/09/30 09:18:38;;;;;;;4.90;3.20;;;17.30;99.90;;;;;;467143;253;28841;-72
2023/09/30 09:20:39;;;;;;;6.23;3.53;;;17.40;99.90;;;;;;467122;253;28893;-72
2023/09/30 09:22:40;;;;;;;4.83;3.30;;;17.40;99.90;;;;;;467158;254;28876;-75
2023/09/30 09:24:46;;;;;;;6.70;3.33;;;17.40;99.90;;;;;;467161;253;28932;-71
2023/09/30 09:26:45;;;;;;;5.83;2.97;;;17.40;99.90;;;;;;467042;254;28881;-73
2023/09/30 09:28:48;;;;;;;3.50;2.73;;;17.40;99.90;;;;;;467146;253;28977;-73
2023/09/30 09:30:48;;;;;;;4.10;2.90;;;17.40;99.90;;;;;;467091;253;29431;-73
2023/09/30 09:32:49;;;;;;;4.53;2.90;;;17.30;99.90;;;;;;467133;253;29404;-71
2023/09/30 09:34:50;;;;;;;5.03;2.93;;;17.20;99.90;;;;;;467173;254;29454;-72
2023/09/30 09:36:52;;;;;;;4.87;3.30;;;16.90;99.90;;;;;;467148;253;29487;-70
2023/09/30 09:38:53;;;;;;;8.23;3.10;;;16.60;99.90;;;;;;467141;254;28937;-71
2023/09/30 09:40:54;;;;;;;6.20;3.07;;;16.50;99.90;;;;;;467152;253;28860;-71
2023/09/30 09:42:55;;;;;;;4.20;3.00;;;16.40;99.90;;;;;;467169;253;28989;-71
2023/09/30 09:44:57;;;;;;;5.83;3.10;;;16.40;99.90;;;;;;467161;253;28951;-72
2023/09/30 09:46:58;;;;;;;6.00;3.30;;;16.40;99.90;;;;;;467154;253;28836;-71
2023/09/30 09:48:59;;;;;;;4.77;3.13;;;16.40;99.90;;;;;;467135;253;28871;-73
2023/09/30 09:51:00;;;;;;;4.17;2.90;;;16.40;99.90;;;;;;467144;253;29311;-74
2023/09/30 09:53:02;;;;;;;3.60;2.93;;;16.40;99.90;;;;;;467156;253;29019;-72
2023/09/30 09:55:03;;;;;;;4.80;2.90;;;16.50;99.90;;;;;;467154;254;29457;-72
2023/09/30 09:57:04;;;;;;;4.07;3.10;;;16.60;99.90;;;;;;467120;254;29294;-71
2023/09/30 09:59:06;;;;;;;3.00;2.43;;;16.60;99.90;;;;;;467127;254;29526;-71
2023/09/30 10:01:07;;;;;;;4.67;3.30;;;16.60;99.90;;;;;;467183;249;29347;-73
2023/09/30 10:03:08;;;;;;;3.60;2.50;;;16.80;99.90;;;;;;467177;253;28929;-71
2023/09/30 10:05:11;;;;;;;5.10;3.23;;;16.90;99.90;;;;;;467103;253;28880;-72
2023/09/30 10:07:11;;;;;;;4.87;3.00;;;17.10;99.90;;;;;;467067;253;28944;-70
2023/09/30 10:09:12;;;;;;;6.20;3.57;;;17.30;99.90;;;;;;467183;254;28909;-73
2023/09/30 10:11:13;;;;;;;4.90;3.30;;;17.40;99.90;;;;;;467168;253;28872;-74
2023/09/30 10:13:14;;;;;;;7.20;3.50;;;17.50;99.90;;;;;;467166;253;28813;-71
2023/09/30 10:15:15;;;;;;;4.20;3.10;;;17.40;99.90;;;;;;467158;253;28954;-71
2023/09/30 10:17:17;;;;;;;6.23;3.80;;;17.30;99.90;;;;;;467177;253;28853;-75
2023/09/30 10:19:18;;;;;;;5.07;3.10;;;17.20;99.90;;;;;;467180;254;28923;-71
2023/09/30 10:21:19;;;;;;;5.90;3.30;;;17.10;99.90;;;;;;467178;253;29352;-71
2023/09/30 10:23:20;;;;;;;7.30;3.97;;;17.10;99.90;;;;;;467162;254;29412;-71
2023/09/30 10:25:22;;;;;;;4.87;3.20;;;17.10;99.90;;;;;;467159;253;29429;-73
2023/09/30 10:27:23;;;;;;;8.10;3.80;;;17.10;99.90;;;;;;467190;253;29479;-76
2023/09/30 10:29:24;;;;;;;6.60;3.77;;;17.20;99.90;;;;;;467171;254;28834;-72
2023/09/30 10:31:25;;;;;;;5.73;3.03;;;17.20;99.90;;;;;;467176;253;29001;-71
2023/09/30 10:33:27;;;;;;;6.27;3.77;;;17.30;99.90;;;;;;467129;253;28895;-72